Time;durP1;ratioP1;P1;durP2;ratioP2;P2;SDS_P1;SDS_P2;PMS_P1;PMS_P2;Temp;Humidity;BMP_temperature;BMP_pressure;BME280_temperature;BME280_humidity;BME280_pressure;Samples;Min_cycle;Max_cycle;Signal;HPM_P1;HPM_P2
2023/01/18 00:04:38;;;;;;;;;;;14.60;59.10;;;;;;10422266;28;89058;-64
2023/01/18 00:09:40;;;;;;;;;;;14.60;59.20;;;;;;10424317;27;90016;-64
2023/01/18 00:14:41;;;;;;;;;;;14.60;59.20;;;;;;10423560;27;88117;-63
2023/01/18 00:19:43;;;;;;;;;;;14.60;59.10;;;;;;10425003;27;88726;-64
2023/01/18 00:24:45;;;;;;;;;;;14.60;59.10;;;;;;10422004;27;88970;-64
2023/01/18 00:29:47;;;;;;;;;;;14.60;59.10;;;;;;10422811;28;90046;-64
2023/01/18 00:34:49;;;;;;;;;;;14.50;59.10;;;;;;10437534;27;90313;-63
2023/01/18 00:39:51;;;;;;;;;;;14.50;59.20;;;;;;10423313;27;89646;-63
2023/01/18 00:44:53;;;;;;;;;;;14.50;59.10;;;;;;10422683;27;88923;-63
2023/01/18 00:49:54;;;;;;;;;;;14.50;59.00;;;;;;10423666;27;89643;-64
2023/01/18 00:54:57;;;;;;;;;;;14.50;59.00;;;;;;10421303;28;88781;-63
2023/01/18 00:59:59;;;;;;;;;;;14.50;59.10;;;;;;10437993;27;90138;-63
2023/01/18 01:10:34;;;;;;;;;;;14.60;59.10;;;;;;10398732;27;89315;-64
2023/01/18 01:26:16;;;;;;;;;;;14.70;58.60;;;;;;10419898;28;90545;-63
2023/01/18 01:31:19;;;;;;;;;;;14.70;58.50;;;;;;10421364;27;89041;-63
2023/01/18 01:36:26;;;;;;;;;;;14.60;58.50;;;;;;10436507;27;90094;-63
2023/01/18 01:41:29;;;;;;;;;;;14.60;58.70;;;;;;10420677;27;88988;-63
2023/01/18 01:46:42;;;;;;;;;;;14.60;58.60;;;;;;10420479;27;88117;-63
2023/01/18 01:51:50;;;;;;;;;;;14.60;58.50;;;;;;10420254;27;88860;-63
2023/01/18 01:56:55;;;;;;;;;;;14.60;58.50;;;;;;10435359;27;88865;-61
2023/01/18 02:07:12;;;;;;;;;;;14.50;58.60;;;;;;10332351;28;91691;-60
2023/01/18 02:12:13;;;;;;;;;;;14.60;58.70;;;;;;10337485;28;89832;-59
2023/01/18 02:17:35;;;;;;;;;;;14.50;58.60;;;;;;10337605;28;89786;-59
2023/01/18 02:22:37;;;;;;;;;;;14.50;58.60;;;;;;10337473;28;88716;-59
2023/01/18 02:27:42;;;;;;;;;;;14.50;58.70;;;;;;10337387;28;88810;-60
2023/01/18 02:32:48;;;;;;;;;;;14.50;58.70;;;;;;10337650;28;88803;-60
2023/01/18 02:38:10;;;;;;;;;;;14.50;58.70;;;;;;10335508;28;90063;-59
2023/01/18 02:48:36;;;;;;;;;;;14.60;58.70;;;;;;10334708;28;88901;-59
2023/01/18 02:53:39;;;;;;;;;;;14.60;58.70;;;;;;10336881;28;89335;-59
2023/01/18 02:58:50;;;;;;;;;;;14.60;58.50;;;;;;10334442;28;88125;-59
2023/01/18 03:03:53;;;;;;;;;;;14.70;58.30;;;;;;10362317;28;88551;-60
2023/01/18 03:08:57;;;;;;;;;;;14.70;58.30;;;;;;10418309;27;89782;-59
2023/01/18 03:13:59;;;;;;;;;;;14.60;58.20;;;;;;10401142;28;88774;-60
2023/01/18 03:19:03;;;;;;;;;;;14.60;58.30;;;;;;10418069;27;89043;-59
2023/01/18 03:24:06;;;;;;;;;;;14.60;58.30;;;;;;10416976;27;88579;-60
2023/01/18 03:34:32;;;;;;;;;;;14.60;58.20;;;;;;10419206;28;89137;-60
2023/01/18 03:39:43;;;;;;;;;;;14.60;58.30;;;;;;10418255;27;89759;-60
2023/01/18 03:44:48;;;;;;;;;;;14.50;58.30;;;;;;10434261;27;88485;-60
2023/01/18 03:49:50;;;;;;;;;;;14.50;58.30;;;;;;10417570;27;88113;-60
2023/01/18 03:55:01;;;;;;;;;;;14.50;58.30;;;;;;10433474;27;88985;-60
2023/01/18 04:00:04;;;;;;;;;;;14.50;58.30;;;;;;10431325;27;89496;-60
2023/01/18 04:05:06;;;;;;;;;;;14.60;58.30;;;;;;10432567;27;90538;-60
2023/01/18 04:10:08;;;;;;;;;;;14.60;58.10;;;;;;10415943;27;89036;-60
2023/01/18 04:15:10;;;;;;;;;;;14.60;58.00;;;;;;10417067;27;88143;-59
2023/01/18 04:20:12;;;;;;;;;;;14.60;57.90;;;;;;10417137;27;89773;-60
2023/01/18 04:25:14;;;;;;;;;;;14.60;58.00;;;;;;10416776;27;89108;-59
2023/01/18 04:30:16;;;;;;;;;;;14.60;58.10;;;;;;10420518;27;88977;-59
2023/01/18 04:35:17;;;;;;;;;;;14.60;58.00;;;;;;10425874;27;89487;-58
2023/01/18 04:40:19;;;;;;;;;;;14.60;58.00;;;;;;10424348;27;89402;-59
2023/01/18 06:02:47;;;;;;;;;;;15.00;57.40;;;;;;10364257;27;89138;-59
2023/01/18 06:07:48;;;;;;;;;;;15.30;57.00;;;;;;10421144;27;88615;-59
2023/01/18 06:12:50;;;;;;;;;;;15.50;56.60;;;;;;10420719;27;89861;-59
2023/01/18 06:17:52;;;;;;;;;;;15.70;56.30;;;;;;10419716;28;90166;-60
2023/01/18 06:22:53;;;;;;;;;;;15.90;56.00;;;;;;10418714;28;88992;-59
2023/01/18 06:27:55;;;;;;;;;;;16.00;55.80;;;;;;10420028;27;88836;-59
2023/01/18 06:32:57;;;;;;;;;;;16.10;55.50;;;;;;10419676;27;88753;-59
2023/01/18 06:38:00;;;;;;;;;;;16.20;55.30;;;;;;10418221;28;89766;-59
2023/01/18 06:43:02;;;;;;;;;;;16.30;55.10;;;;;;10402257;28;91489;-59
2023/01/18 06:48:03;;;;;;;;;;;16.40;55.00;;;;;;10417641;28;88822;-59
2023/01/18 06:53:05;;;;;;;;;;;16.40;55.00;;;;;;10418485;27;89054;-59
2023/01/18 06:58:07;;;;;;;;;;;16.40;54.90;;;;;;10418480;28;89222;-59
2023/01/18 07:03:09;;;;;;;;;;;16.40;54.80;;;;;;10418774;28;90028;-59
2023/01/18 07:08:11;;;;;;;;;;;16.40;54.80;;;;;;10419254;27;89950;-59
2023/01/18 07:13:13;;;;;;;;;;;16.50;55.20;;;;;;10417422;27;88934;-59
2023/01/18 07:18:16;;;;;;;;;;;16.40;55.10;;;;;;10418864;27;89309;-59
2023/01/18 07:23:17;;;;;;;;;;;16.40;55.20;;;;;;10419265;27;89172;-59
2023/01/18 07:28:19;;;;;;;;;;;16.20;55.20;;;;;;10418723;27;88985;-59
2023/01/18 07:33:21;;;;;;;;;;;16.10;55.40;;;;;;10418489;28;90474;-59
2023/01/18 07:38:23;;;;;;;;;;;16.00;55.50;;;;;;10417506;28;90931;-59
2023/01/18 07:43:25;;;;;;;;;;;15.80;55.70;;;;;;10418869;27;90043;-59
2023/01/18 07:48:27;;;;;;;;;;;15.70;55.90;;;;;;10418155;27;88307;-59
2023/01/18 07:53:29;;;;;;;;;;;15.60;56.30;;;;;;10416632;28;90183;-59
2023/01/18 07:58:31;;;;;;;;;;;15.50;56.60;;;;;;10418263;27;89820;-59
2023/01/18 08:03:33;;;;;;;;;;;15.40;57.10;;;;;;10419775;27;89870;-59
2023/01/18 08:08:35;;;;;;;;;;;15.30;57.00;;;;;;10424882;28;88266;-59
2023/01/18 08:13:37;;;;;;;;;;;15.20;56.80;;;;;;10424926;27;88216;-60
2023/01/18 08:18:39;;;;;;;;;;;15.20;56.80;;;;;;10424105;27;89030;-59
2023/01/18 08:23:40;;;;;;;;;;;15.10;57.20;;;;;;10424956;27;88948;-60
2023/01/18 08:28:43;;;;;;;;;;;15.00;57.20;;;;;;10424143;27;90780;-60
2023/01/18 08:33:47;;;;;;;;;;;14.90;57.40;;;;;;10423869;27;90678;-60
2023/01/18 08:38:54;;;;;;;;;;;14.90;57.40;;;;;;10424154;27;89163;-60
2023/01/18 08:43:56;;;;;;;;;;;14.90;57.30;;;;;;10424655;27;90044;-59
2023/01/18 08:48:58;;;;;;;;;;;14.90;58.30;;;;;;10423532;27;89001;-60
2023/01/18 08:54:00;;;;;;;;;;;14.80;57.30;;;;;;10422931;27;89100;-60
2023/01/18 08:59:06;;;;;;;;;;;14.80;57.20;;;;;;10422384;28;88966;-60
2023/01/18 09:04:07;;;;;;;;;;;14.80;57.30;;;;;;10424504;28;88769;-60
2023/01/18 09:09:10;;;;;;;;;;;14.80;57.40;;;;;;10422022;27;89171;-59
2023/01/18 09:14:12;;;;;;;;;;;14.80;57.40;;;;;;10422448;27;88652;-60
2023/01/18 09:19:14;;;;;;;;;;;14.80;57.40;;;;;;10422067;28;90590;-58
2023/01/18 09:24:16;;;;;;;;;;;14.80;57.40;;;;;;10422361;28;89407;-59
2023/01/18 09:29:18;;;;;;;;;;;14.90;58.40;;;;;;10422287;27;88583;-59
2023/01/18 09:34:20;;;;;;;;;;;14.90;57.50;;;;;;10422298;27;88858;-60
2023/01/18 09:39:22;;;;;;;;;;;14.90;57.40;;;;;;10422152;27;90194;-59
2023/01/18 09:44:34;;;;;;;;;;;14.90;57.40;;;;;;10420254;28;89788;-59
2023/01/18 09:49:43;;;;;;;;;;;14.90;57.40;;;;;;10421152;27;88571;-60
2023/01/18 09:54:56;;;;;;;;;;;15.00;57.50;;;;;;10420891;28;89305;-60
2023/01/18 09:59:58;;;;;;;;;;;14.90;57.30;;;;;;10421369;27;89775;-59
2023/01/18 10:05:12;;;;;;;;;;;15.00;57.30;;;;;;10421425;27;88993;-59
2023/01/18 10:10:14;;;;;;;;;;;14.90;57.30;;;;;;10420108;27;90000;-59
2023/01/18 10:15:21;;;;;;;;;;;15.00;57.50;;;;;;10420082;27;89157;-60
2023/01/18 10:20:22;;;;;;;;;;;15.00;57.50;;;;;;10421102;27;88874;-59
2023/01/18 10:25:31;;;;;;;;;;;15.00;57.40;;;;;;10417978;27;89409;-59
2023/01/18 10:30:36;;;;;;;;;;;15.00;57.40;;;;;;10418358;28;88806;-59
2023/01/18 10:35:40;;;;;;;;;;;15.00;57.50;;;;;;10419705;27;88915;-59
2023/01/18 10:40:43;;;;;;;;;;;15.00;57.60;;;;;;10419583;27;89845;-59
2023/01/18 10:45:45;;;;;;;;;;;15.00;57.60;;;;;;10420461;27;88452;-59
2023/01/18 10:50:48;;;;;;;;;;;15.00;57.50;;;;;;10417295;28;89209;-59
2023/01/18 10:56:06;;;;;;;;;;;15.00;57.60;;;;;;10418028;28;89723;-58
2023/01/18 11:01:12;;;;;;;;;;;15.10;57.70;;;;;;10417396;28;89900;-59
2023/01/18 11:06:15;;;;;;;;;;;15.30;57.60;;;;;;10417301;28;89578;-59
2023/01/18 11:17:01;;;;;;;;;;;15.80;57.10;;;;;;10419367;28;90070;-59
2023/01/18 11:22:02;;;;;;;;;;;16.10;56.70;;;;;;10418695;27;89918;-59
2023/01/18 11:27:10;;;;;;;;;;;16.30;56.20;;;;;;10418377;27;89631;-59
2023/01/18 11:32:26;;;;;;;;;;;16.40;55.90;;;;;;10417529;28;90053;-59
2023/01/18 11:37:29;;;;;;;;;;;16.60;55.70;;;;;;10420826;27;87339;-59
2023/01/18 11:42:33;;;;;;;;;;;16.70;55.40;;;;;;10427230;27;88969;-59
2023/01/18 11:47:41;;;;;;;;;;;16.90;55.40;;;;;;10425803;27;88693;-59
2023/01/18 11:52:50;;;;;;;;;;;17.00;55.20;;;;;;10425531;27;89687;-60
2023/01/18 11:57:52;;;;;;;;;;;17.00;55.00;;;;;;10425707;27;92141;-59
2023/01/18 12:03:10;;;;;;;;;;;17.10;54.90;;;;;;10437263;27;89553;-59
2023/01/18 12:08:21;;;;;;;;;;;17.20;54.80;;;;;;10466481;27;88350;-60
2023/01/18 12:13:32;;;;;;;;;;;17.30;54.60;;;;;;10466443;27;90098;-59
2023/01/18 12:18:40;;;;;;;;;;;17.30;54.70;;;;;;10464559;27;89112;-60
2023/01/18 12:24:08;;;;;;;;;;;17.30;54.90;;;;;;10454372;27;89833;-59
2023/01/18 12:29:15;;;;;;;;;;;17.40;55.10;;;;;;10438618;27;89108;-59
2023/01/18 12:34:40;;;;;;;;;;;17.50;55.10;;;;;;10464809;27;90234;-60
2023/01/18 12:40:00;;;;;;;;;;;17.50;55.80;;;;;;10436214;27;89883;-60
2023/01/18 12:45:16;;;;;;;;;;;17.60;55.50;;;;;;10463092;27;89615;-60
2023/01/18 12:50:22;;;;;;;;;;;17.60;55.50;;;;;;10457114;27;89642;-59
2023/01/18 12:55:24;;;;;;;;;;;17.70;55.40;;;;;;10456170;27;88155;-60
2023/01/18 13:00:26;;;;;;;;;;;17.60;55.70;;;;;;10459808;27;88997;-60
2023/01/18 13:05:33;;;;;;;;;;;17.60;55.80;;;;;;10463670;27;91136;-59
2023/01/18 13:10:35;;;;;;;;;;;17.50;56.20;;;;;;10464939;27;90052;-59
2023/01/18 13:16:00;;;;;;;;;;;17.40;56.40;;;;;;10463878;27;89673;-59
2023/01/18 13:21:23;;;;;;;;;;;17.50;56.50;;;;;;10446941;27;87276;-60
2023/01/18 13:26:28;;;;;;;;;;;17.50;56.50;;;;;;10464697;27;88825;-60
2023/01/18 13:31:30;;;;;;;;;;;17.60;56.40;;;;;;10461986;27;89924;-60
2023/01/18 13:36:43;;;;;;;;;;;17.70;56.30;;;;;;10461230;27;88834;-60
2023/01/18 13:42:03;;;;;;;;;;;17.70;56.10;;;;;;10462700;27;89432;-60
2023/01/18 13:47:24;;;;;;;;;;;17.80;55.90;;;;;;10463176;27;88952;-59
2023/01/18 13:52:34;;;;;;;;;;;17.80;55.90;;;;;;10463316;27;89096;-60
2023/01/18 13:57:36;;;;;;;;;;;17.70;56.00;;;;;;10462009;27;88408;-59
2023/01/18 14:02:44;;;;;;;;;;;17.60;56.30;;;;;;10462467;27;89013;-60
2023/01/18 14:07:47;;;;;;;;;;;17.50;56.50;;;;;;10462362;27;89815;-60
2023/01/18 14:12:54;;;;;;;;;;;17.60;56.70;;;;;;10463757;27;89116;-59
2023/01/18 14:17:56;;;;;;;;;;;17.60;56.70;;;;;;10463545;27;88872;-61
2023/01/18 14:23:19;;;;;;;;;;;17.70;56.70;;;;;;10462398;27;89124;-60
2023/01/18 14:28:26;;;;;;;;;;;17.80;56.50;;;;;;10461925;27;89934;-60
2023/01/18 14:33:39;;;;;;;;;;;17.90;56.40;;;;;;10461245;27;89336;-59
2023/01/18 14:38:42;;;;;;;;;;;17.90;56.40;;;;;;10461087;27;90071;-60
2023/01/18 14:43:47;;;;;;;;;;;17.80;56.50;;;;;;10461388;27;89299;-60
2023/01/18 14:48:50;;;;;;;;;;;17.70;56.80;;;;;;10460022;27;89222;-60
2023/01/18 14:53:56;;;;;;;;;;;17.60;57.10;;;;;;10460695;27;89004;-59
2023/01/18 14:58:59;;;;;;;;;;;17.60;57.20;;;;;;10461486;27;88850;-60
2023/01/18 15:04:02;;;;;;;;;;;17.70;57.20;;;;;;10461190;27;88816;-59
2023/01/18 15:09:06;;;;;;;;;;;17.70;57.30;;;;;;10460277;27;88907;-59
2023/01/18 15:14:11;;;;;;;;;;;17.80;57.10;;;;;;10453639;27;89974;-60
2023/01/18 15:19:16;;;;;;;;;;;17.80;57.20;;;;;;10457889;27;89873;-60
2023/01/18 15:24:23;;;;;;;;;;;17.80;57.30;;;;;;10458070;27;89679;-59
2023/01/18 15:29:29;;;;;;;;;;;17.70;57.50;;;;;;10438528;27;88169;-60
2023/01/18 15:34:34;;;;;;;;;;;17.60;57.50;;;;;;10413849;27;90272;-59
2023/01/18 15:39:46;;;;;;;;;;;17.60;57.50;;;;;;10449641;27;88913;-59
2023/01/18 15:44:50;;;;;;;;;;;17.70;57.50;;;;;;10458910;27;88834;-59
2023/01/18 15:49:53;;;;;;;;;;;17.80;57.30;;;;;;10459424;27;90081;-60
2023/01/18 15:54:55;;;;;;;;;;;17.90;57.10;;;;;;10459221;27;89282;-60
2023/01/18 16:00:00;;;;;;;;;;;18.00;56.90;;;;;;10458384;27;90256;-59
2023/01/18 16:05:28;;;;;;;;;;;18.20;56.70;;;;;;10455282;27;89645;-59
2023/01/18 16:10:31;;;;;;;;;;;18.30;56.50;;;;;;10455901;27;89814;-59
2023/01/18 16:15:32;;;;;;;;;;;18.30;56.40;;;;;;10441322;27;89269;-59
2023/01/18 16:20:34;;;;;;;;;;;18.40;56.20;;;;;;10412184;27;88814;-60
2023/01/18 16:25:36;;;;;;;;;;;18.40;56.30;;;;;;10382249;28;89085;-60
2023/01/18 16:30:38;;;;;;;;;;;18.40;57.00;;;;;;10381112;28;89761;-60
2023/01/18 16:35:40;;;;;;;;;;;18.30;57.20;;;;;;10400365;28;88874;-60
2023/01/18 16:40:43;;;;;;;;;;;18.20;57.40;;;;;;10422263;27;89533;-59
2023/01/18 16:45:46;;;;;;;;;;;18.20;61.20;;;;;;10421564;28;88872;-59
2023/01/18 16:50:49;;;;;;;;;;;18.10;61.80;;;;;;10420583;27;88143;-59
2023/01/18 16:55:50;;;;;;;;;;;18.20;65.40;;;;;;10422130;27;89159;-59
2023/01/18 17:00:56;;;;;;;;;;;18.30;64.00;;;;;;10421222;28;90792;-59
2023/01/18 17:05:58;;;;;;;;;;;18.40;64.30;;;;;;10421996;27;89911;-60
2023/01/18 17:11:00;;;;;;;;;;;18.50;61.70;;;;;;10420992;28;90217;-59
2023/01/18 17:16:02;;;;;;;;;;;18.50;61.40;;;;;;10421076;28;90016;-59
2023/01/18 17:21:04;;;;;;;;;;;18.50;61.10;;;;;;10419849;27;89975;-60
2023/01/18 17:26:06;;;;;;;;;;;18.40;61.10;;;;;;10421791;28;89678;-63
2023/01/18 17:31:08;;;;;;;;;;;18.30;61.30;;;;;;10421102;27;90077;-60
2023/01/18 17:36:10;;;;;;;;;;;18.30;60.90;;;;;;10421259;27;87477;-60
2023/01/18 17:41:24;;;;;;;;;;;18.30;61.50;;;;;;10420072;27;90042;-61
2023/01/18 17:46:31;;;;;;;;;;;18.40;60.20;;;;;;10420220;27;89091;-61
2023/01/18 17:51:33;;;;;;;;;;;18.40;59.60;;;;;;10419369;27;89821;-60
2023/01/18 17:56:36;;;;;;;;;;;18.50;59.10;;;;;;10420954;28;89968;-60
2023/01/18 18:01:37;;;;;;;;;;;18.40;58.70;;;;;;10417412;28;89835;-61
2023/01/18 18:06:39;;;;;;;;;;;18.40;58.70;;;;;;10416656;28;89999;-60
2023/01/18 18:11:54;;;;;;;;;;;18.30;58.70;;;;;;10417108;28;90214;-60
2023/01/18 18:16:56;;;;;;;;;;;18.30;58.90;;;;;;10418672;28;89641;-60
2023/01/18 18:21:58;;;;;;;;;;;18.40;58.90;;;;;;10418825;28;88943;-60
2023/01/18 18:27:00;;;;;;;;;;;18.40;58.80;;;;;;10420325;27;88023;-60
2023/01/18 18:32:05;;;;;;;;;;;18.50;58.50;;;;;;10417950;28;88824;-60
2023/01/18 18:37:07;;;;;;;;;;;18.40;58.50;;;;;;10419355;27;88825;-61
2023/01/18 18:42:08;;;;;;;;;;;18.40;59.60;;;;;;10417841;27;89940;-61
2023/01/18 18:47:12;;;;;;;;;;;18.30;58.80;;;;;;10415935;28;90017;-61
2023/01/18 18:52:13;;;;;;;;;;;18.30;58.80;;;;;;10419264;27;89230;-61
2023/01/18 18:57:16;;;;;;;;;;;18.40;58.70;;;;;;10418302;28;88416;-60
2023/01/18 19:02:18;;;;;;;;;;;18.50;58.40;;;;;;10418034;28;90337;-60
2023/01/18 19:07:19;;;;;;;;;;;18.50;58.20;;;;;;10414873;27;89575;-60
2023/01/18 19:12:23;;;;;;;;;;;18.40;58.10;;;;;;10376179;27;109602;-60
2023/01/18 19:17:25;;;;;;;;;;;18.30;58.10;;;;;;10377174;28;89256;-60
2023/01/18 19:22:31;;;;;;;;;;;18.30;58.20;;;;;;10375196;28;89054;-60
2023/01/18 19:27:33;;;;;;;;;;;18.30;58.10;;;;;;10375511;28;89216;-60
2023/01/18 19:32:35;;;;;;;;;;;18.40;57.90;;;;;;10403195;27;90948;-60
2023/01/18 19:37:37;;;;;;;;;;;18.40;57.70;;;;;;10415846;28;90043;-60
2023/01/18 19:42:39;;;;;;;;;;;18.40;57.70;;;;;;10394563;28;88621;-60
2023/01/18 19:47:41;;;;;;;;;;;18.30;57.80;;;;;;10415126;27;89813;-60
2023/01/18 19:52:45;;;;;;;;;;;18.30;57.90;;;;;;10416148;28;89882;-60
2023/01/18 19:57:51;;;;;;;;;;;18.30;57.80;;;;;;10417670;27;88996;-60
2023/01/18 20:02:53;;;;;;;;;;;18.40;57.70;;;;;;10423878;27;88276;-60
2023/01/18 20:07:55;;;;;;;;;;;18.50;57.50;;;;;;10425860;27;89342;-61
2023/01/18 20:12:56;;;;;;;;;;;18.50;57.30;;;;;;10423740;28;89967;-60
2023/01/18 20:17:59;;;;;;;;;;;18.50;57.30;;;;;;10424377;27;88843;-60
2023/01/18 20:23:02;;;;;;;;;;;18.40;57.30;;;;;;10421472;28;90750;-60
2023/01/18 20:28:04;;;;;;;;;;;18.40;57.50;;;;;;10423102;27;89971;-60
2023/01/18 20:33:06;;;;;;;;;;;18.40;57.80;;;;;;10423635;28;90019;-61
2023/01/18 20:38:08;;;;;;;;;;;18.50;57.40;;;;;;10423320;27;89114;-60
2023/01/18 20:43:10;;;;;;;;;;;18.50;57.00;;;;;;10423362;27;90130;-61
2023/01/18 20:48:12;;;;;;;;;;;18.50;56.90;;;;;;10422855;27;90039;-61
2023/01/18 20:53:14;;;;;;;;;;;18.50;57.10;;;;;;10421975;27;89241;-60
2023/01/18 20:58:16;;;;;;;;;;;18.30;57.10;;;;;;10422828;27;88379;-60
2023/01/18 21:03:18;;;;;;;;;;;18.20;57.20;;;;;;10420966;28;89709;-60
2023/01/18 21:08:19;;;;;;;;;;;18.10;57.50;;;;;;10421427;27;89139;-61
2023/01/18 21:13:23;;;;;;;;;;;18.00;57.70;;;;;;10418920;27;90531;-60
2023/01/18 21:18:25;;;;;;;;;;;17.90;57.90;;;;;;10421412;27;89055;-60
2023/01/18 21:23:28;;;;;;;;;;;17.70;58.00;;;;;;10421690;27;89631;-60
2023/01/18 21:28:30;;;;;;;;;;;17.60;58.30;;;;;;10421360;28;90003;-61
2023/01/18 21:33:32;;;;;;;;;;;17.50;58.50;;;;;;10419516;28;90353;-60
2023/01/18 21:38:34;;;;;;;;;;;17.50;58.70;;;;;;10420984;27;89120;-60
2023/01/18 21:48:59;;;;;;;;;;;17.30;59.00;;;;;;10421498;27;88157;-61
2023/01/18 21:54:13;;;;;;;;;;;17.20;59.10;;;;;;10420526;27;89877;-60
2023/01/18 21:59:15;;;;;;;;;;;17.10;59.20;;;;;;10421244;27;89262;-60
2023/01/18 22:09:38;;;;;;;;;;;17.00;59.30;;;;;;10418102;27;89896;-60
2023/01/18 22:14:39;;;;;;;;;;;16.90;59.30;;;;;;10459540;27;89975;-60
2023/01/18 22:19:42;;;;;;;;;;;16.80;59.40;;;;;;10461958;27;89008;-61
2023/01/18 22:24:44;;;;;;;;;;;16.70;59.30;;;;;;10461147;27;89334;-61
2023/01/18 22:29:46;;;;;;;;;;;16.70;59.50;;;;;;10461439;27;89298;-60
2023/01/18 22:34:48;;;;;;;;;;;16.60;59.40;;;;;;10462206;27;89108;-60
2023/01/18 22:39:50;;;;;;;;;;;16.50;59.40;;;;;;10478192;27;88271;-60
2023/01/18 22:44:52;;;;;;;;;;;16.50;59.40;;;;;;10461892;27;89201;-60
2023/01/18 22:49:54;;;;;;;;;;;16.50;59.40;;;;;;10461392;27;89240;-60
2023/01/18 22:54:55;;;;;;;;;;;16.40;59.50;;;;;;10460727;27;89441;-60
2023/01/18 22:59:57;;;;;;;;;;;16.40;59.50;;;;;;10461185;27;89820;-61
2023/01/18 23:04:59;;;;;;;;;;;16.30;59.60;;;;;;10476097;27;89080;-60
2023/01/18 23:10:01;;;;;;;;;;;16.30;59.60;;;;;;10459287;27;88940;-60
2023/01/18 23:20:23;;;;;;;;;;;16.20;59.50;;;;;;10459766;27;89085;-60
2023/01/18 23:25:25;;;;;;;;;;;16.20;59.60;;;;;;10460034;27;89211;-60
2023/01/18 23:30:27;;;;;;;;;;;16.10;59.50;;;;;;10461138;27;88296;-60
2023/01/18 23:35:29;;;;;;;;;;;16.10;59.50;;;;;;10462341;27;88935;-60
2023/01/18 23:56:32;;;;;;;;;;;16.00;59.60;;;;;;10468228;27;89975;-61
